Time;durP1;ratioP1;P1;durP2;ratioP2;P2;SDS_P1;SDS_P2;PMS_P1;PMS_P2;Temp;Humidity;BMP_temperature;BMP_pressure;BME280_temperature;BME280_humidity;BME280_pressure;Samples;Min_cycle;Max_cycle;Signal;HPM_P1;HPM_P2
2023/04/12 00:10:28;;;;;;;17.63;8.17;;;;;;;13.87;100.00;99083.50;31348114;28;20121;-77
2023/04/12 00:25:30;;;;;;;18.93;8.33;;;;;;;13.82;100.00;99075.97;31357635;28;20072;-77
2023/04/12 00:40:34;;;;;;;18.27;7.63;;;;;;;13.76;100.00;99061.44;31357647;28;20053;-77
2023/04/12 00:55:36;;;;;;;17.67;7.40;;;;;;;13.74;100.00;99058.41;31342376;28;20431;-76
2023/04/12 01:11:03;;;;;;;16.27;7.77;;;;;;;13.78;100.00;99026.28;31338946;28;20044;-77
2023/04/12 01:26:39;;;;;;;18.40;8.13;;;;;;;13.67;100.00;99017.13;31347028;28;20459;-77
2023/04/12 01:41:44;;;;;;;13.27;7.50;;;;;;;13.63;100.00;99009.13;31355770;28;20126;-76
2023/04/12 01:56:58;;;;;;;17.07;7.67;;;;;;;13.67;100.00;98987.13;31360004;28;20503;-77
2023/04/12 02:12:00;;;;;;;14.13;6.57;;;;;;;13.63;100.00;98979.13;31352640;28;20110;-75
2023/04/12 02:27:02;;;;;;;14.73;7.17;;;;;;;13.56;100.00;98957.66;31362010;28;20056;-76
2023/04/12 02:42:05;;;;;;;13.47;7.37;;;;;;;13.61;100.00;98959.75;31335797;28;20143;-76
2023/04/12 02:57:07;;;;;;;16.77;7.10;;;;;;;13.45;100.00;98973.81;31366993;28;20052;-77
2023/04/12 03:12:10;;;;;;;13.20;7.10;;;;;;;13.40;100.00;98963.53;31335651;28;20048;-77
2023/04/12 03:27:12;;;;;;;18.27;8.67;;;;;;;13.22;100.00;98965.16;31363024;28;20075;-76
2023/04/12 03:42:14;;;;;;;21.63;10.80;;;;;;;13.24;100.00;98973.59;31338264;28;20505;-77
2023/04/12 03:57:33;;;;;;;24.03;10.27;;;;;;;13.20;100.00;98956.69;31371794;28;20507;-77
2023/04/12 04:12:35;;;;;;;25.00;10.77;;;;;;;13.18;100.00;98975.47;31351660;28;20053;-77
2023/04/12 04:27:37;;;;;;;29.97;11.53;;;;;;;13.30;100.00;98971.75;31364018;28;20169;-76
2023/04/12 04:42:41;;;;;;;25.27;9.97;;;;;;;13.61;100.00;98974.13;31342142;28;20129;-75
2023/04/12 04:57:44;;;;;;;20.10;9.23;;;;;;;13.28;100.00;98968.75;31345049;28;20091;-75
2023/04/12 05:12:46;;;;;;;14.77;6.53;;;;;;;13.20;100.00;98962.16;31340069;28;20433;-76
2023/04/12 05:27:48;;;;;;;15.53;6.03;;;;;;;13.59;100.00;98964.91;31321444;28;20080;-75
2023/04/12 05:42:52;;;;;;;11.33;6.40;;;;;;;13.74;100.00;98943.88;31329904;28;20064;-76
2023/04/12 05:57:54;;;;;;;15.13;6.10;;;;;;;13.59;100.00;98943.84;31361790;28;20111;-75
2023/04/12 06:12:57;;;;;;;18.90;7.13;;;;;;;13.78;100.00;98930.81;31338700;28;20363;-76
2023/04/12 06:27:58;;;;;;;26.37;7.13;;;;;;;14.08;100.00;98925.41;31357009;28;20045;-75
2023/04/12 06:43:00;;;;;;;17.80;6.97;;;;;;;14.04;100.00;98933.75;31347317;28;20476;-76
2023/04/12 06:58:02;;;;;;;14.90;5.60;;;;;;;14.06;100.00;98930.56;31347142;28;20091;-77
2023/04/12 07:13:07;;;;;;;13.67;6.50;;;;;;;14.06;100.00;98938.75;31352463;28;20060;-76
2023/04/12 07:28:09;;;;;;;12.70;5.93;;;;;;;14.10;100.00;98939.31;31363998;28;20041;-77
2023/04/12 07:43:11;;;;;;;16.00;6.03;;;;;;;14.13;100.00;98935.66;31364166;28;20048;-78
2023/04/12 07:58:14;;;;;;;15.63;6.53;;;;;;;14.17;100.00;98930.78;31330243;28;20468;-80
2023/04/12 08:13:17;;;;;;;18.63;6.23;;;;;;;14.31;100.00;98919.09;31328030;28;20079;-77
2023/04/12 08:28:19;;;;;;;10.97;6.17;;;;;;;14.11;100.00;98906.09;31370267;28;20052;-78
2023/04/12 08:43:21;;;;;;;93.50;10.13;;;;;;;14.32;100.00;98904.22;31361279;28;20041;-77
2023/04/12 08:58:24;;;;;;;29.23;9.53;;;;;;;14.34;100.00;98890.84;31374015;28;20051;-76
2023/04/12 09:13:35;;;;;;;20.83;8.77;;;;;;;14.34;100.00;98890.84;31344848;28;20080;-77
2023/04/12 09:28:43;;;;;;;30.17;12.50;;;;;;;14.33;100.00;98894.81;31364302;28;20109;-77
2023/04/12 09:43:45;;;;;;;44.70;10.87;;;;;;;14.13;100.00;98881.09;31381732;28;20639;-77
2023/04/12 09:58:50;;;;;;;111.33;14.27;;;;;;;14.22;100.00;98864.59;31365643;28;20049;-76
2023/04/12 10:13:55;;;;;;;18.43;11.20;;;;;;;14.37;100.00;98861.84;31353926;28;20106;-76
2023/04/12 10:29:30;;;;;;;21.90;12.83;;;;;;;14.55;100.00;98850.72;31348199;28;20465;-76
2023/04/12 10:44:32;;;;;;;30.73;14.80;;;;;;;14.35;100.00;98854.13;31370836;28;20069;-75
2023/04/12 10:59:58;;;;;;;25.70;14.73;;;;;;;14.58;100.00;98860.69;31374336;28;20041;-77
2023/04/12 11:15:02;;;;;;;24.93;15.40;;;;;;;14.57;100.00;98859.19;31376848;28;20688;-78
2023/04/12 11:30:05;;;;;;;18.93;11.27;;;;;;;14.67;100.00;98861.31;31353056;28;20048;-78
2023/04/12 11:45:10;;;;;;;22.27;10.87;;;;;;;14.60;100.00;98859.00;31358067;28;20061;-81
2023/04/12 12:00:21;;;;;;;20.10;10.07;;;;;;;14.78;100.00;98863.47;31336340;28;20081;-79
2023/04/12 12:15:29;;;;;;;20.60;10.87;;;;;;;14.53;100.00;98853.94;31338505;28;20056;-76
2023/04/12 12:30:38;;;;;;;22.13;12.40;;;;;;;14.61;100.00;98837.91;31334792;28;20045;-78
2023/04/12 12:45:40;;;;;;;35.07;14.47;;;;;;;14.65;100.00;98822.81;31380278;28;20176;-80
2023/04/12 13:00:42;;;;;;;29.50;14.77;;;;;;;14.73;100.00;98816.94;31329430;28;20056;-79
2023/04/12 13:15:46;;;;;;;29.00;15.47;;;;;;;14.79;100.00;98815.03;31345377;28;20057;-79
2023/04/12 13:30:48;;;;;;;31.90;15.60;;;;;;;14.60;100.00;98804.38;31337923;28;20073;-77
2023/04/12 13:45:51;;;;;;;26.37;14.43;;;;;;;14.85;100.00;98802.97;31348503;28;20109;-80
2023/04/12 14:00:55;;;;;;;27.83;13.87;;;;;;;15.06;100.00;98825.56;31318324;28;20057;-79
2023/04/12 14:15:58;;;;;;;26.80;13.63;;;;;;;15.12;100.00;98826.34;31369828;28;20127;-81
2023/04/12 14:31:00;;;;;;;28.17;13.17;;;;;;;15.17;100.00;98833.88;31342560;28;20061;-79
2023/04/12 14:46:08;;;;;;;26.60;14.17;;;;;;;15.10;100.00;98812.44;31346358;28;20149;-82
2023/04/12 15:01:11;;;;;;;28.97;12.77;;;;;;;15.08;100.00;98838.75;31350330;28;20351;-82
2023/04/12 15:16:16;;;;;;;25.03;15.17;;;;;;;15.09;100.00;98838.28;31374601;28;20103;-80
2023/04/12 15:31:19;;;;;;;25.57;14.03;;;;;;;14.75;100.00;98825.41;31373576;28;20049;-77
2023/04/12 15:46:21;;;;;;;26.17;13.40;;;;;;;14.68;100.00;98827.31;31383306;28;20067;-80
2023/04/12 16:01:23;;;;;;;24.90;14.33;;;;;;;14.65;100.00;98833.72;31355857;28;20174;-78
2023/04/12 16:16:26;;;;;;;35.70;16.33;;;;;;;14.47;100.00;98805.91;31352184;28;20493;-77
2023/04/12 16:31:30;;;;;;;60.37;28.50;;;;;;;14.38;100.00;98820.44;31345872;28;20048;-76
2023/04/12 16:46:32;;;;;;;36.57;19.17;;;;;;;14.47;100.00;98809.41;31355235;28;20056;-76
2023/04/12 17:01:34;;;;;;;41.40;19.33;;;;;;;14.43;100.00;98817.03;31334346;28;20148;-77
2023/04/12 17:16:37;;;;;;;44.07;20.17;;;;;;;14.39;100.00;98832.84;31347553;28;20464;-76
2023/04/12 17:31:41;;;;;;;43.23;20.77;;;;;;;14.43;100.00;98838.88;31347551;28;21296;-77
2023/04/12 17:46:43;;;;;;;34.97;18.60;;;;;;;14.58;100.00;98845.06;31365512;28;20083;-75
2023/04/12 18:01:45;;;;;;;31.73;15.37;;;;;;;14.55;100.00;98856.94;31340451;28;20118;-76
2023/04/12 18:16:48;;;;;;;29.70;12.83;;;;;;;14.48;100.00;98857.31;31340058;28;20045;-77
2023/04/12 18:31:50;;;;;;;9.93;5.03;;;;;;;14.42;100.00;98853.00;31376766;28;20393;-77
2023/04/12 18:46:52;;;;;;;6.93;3.23;;;;;;;14.13;100.00;98853.78;31349934;28;20135;-77
2023/04/12 19:01:54;;;;;;;11.50;4.93;;;;;;;13.96;100.00;98851.53;31355839;28;20066;-75
2023/04/12 19:16:57;;;;;;;11.27;4.67;;;;;;;13.75;100.00;98841.75;31375748;28;20052;-75
2023/04/12 19:32:00;;;;;;;10.87;4.80;;;;;;;13.45;100.00;98840.97;31373190;28;20068;-77
2023/04/12 19:47:03;;;;;;;9.57;4.67;;;;;;;13.22;100.00;98828.91;31343254;28;20135;-77
2023/04/12 20:02:06;;;;;;;8.23;4.60;;;;;;;13.22;100.00;98853.44;31338837;28;20129;-79
2023/04/12 20:17:09;;;;;;;12.23;4.30;;;;;;;13.15;100.00;98867.41;31368104;28;20099;-77
2023/04/12 20:32:14;;;;;;;8.60;4.67;;;;;;;13.04;100.00;98858.22;31347043;28;20139;-77
2023/04/12 20:47:17;;;;;;;9.77;4.63;;;;;;;12.80;100.00;98874.56;31357116;28;20053;-77
2023/04/12 21:02:20;;;;;;;12.13;5.73;;;;;;;12.57;100.00;98884.94;31331141;28;20049;-76
2023/04/12 21:17:24;;;;;;;11.67;6.40;;;;;;;12.68;100.00;98870.09;31340310;28;20416;-77
2023/04/12 21:32:25;;;;;;;15.80;5.60;;;;;;;12.51;100.00;98869.72;31337883;28;20049;-77
2023/04/12 21:47:28;;;;;;;11.17;5.33;;;;;;;12.44;100.00;98880.94;31338666;28;20065;-77
2023/04/12 22:02:30;;;;;;;7.97;4.23;;;;;;;12.36;100.00;98864.19;31341695;28;20140;-77
2023/04/12 22:17:33;;;;;;;7.47;2.90;;;;;;;12.37;100.00;98898.34;31335015;28;20049;-77
2023/04/12 22:32:35;;;;;;;5.27;2.67;;;;;;;12.39;100.00;98917.69;31356984;28;20052;-77
2023/04/12 22:47:37;;;;;;;6.57;3.30;;;;;;;12.35;100.00;98889.88;31362924;28;20571;-76
2023/04/12 23:02:39;;;;;;;5.43;3.30;;;;;;;12.34;100.00;98893.06;31369427;28;20056;-76
2023/04/12 23:17:41;;;;;;;6.30;3.53;;;;;;;12.22;100.00;98900.22;31371735;28;20098;-76
2023/04/12 23:32:43;;;;;;;7.83;4.17;;;;;;;12.26;100.00;98889.94;31353941;28;20413;-77
2023/04/12 23:47:45;;;;;;;7.33;4.63;;;;;;;12.12;100.00;98872.28;31362126;28;20157;-76
